الصفحة الرئيسية
METAR-TAF:

METAR-TAF

مطار :

إيركوتسك, روسيا

دائرة عرض: 52-16N, خط طول: 104-19E, ارتفاع: 513 متر

مراقبة الطقس الحالي

تاريخ ووقت الإصدار 28 دقيقة قبل الساعة 18:30UTC
رياح هادئة
درجة الحرارة -2°درجة مئوية
الرطوبة 69%
ضغط 1022 hPa
الرؤية 10 كم أو أكثر
الغيوم لا تقل 1500 م ولا وجود لمزنة ركامية السحاب الأسود

METAR: UIII 011830Z 00000MPS CAVOK M02/M07 Q1022 R30/60D NOSIG RMK QFE722/0962

زمن: 02:58 (18:58 UTC)

توقعات

تاريخ ووقت الإصدار 1ساعة و 58 دقيقة قبل الساعة 17:00UTC
التوقعات صالحة من01 الساعة 18 UTC إلى 02 الساعة 18 UTC
ريح 2 عقدةمن اتجاهات متغيرة
الرؤية 10 كم أو أكثر
الغيوم لا تقل 1500 م ولا وجود لمزنة ركامية السحاب الأسود

TAF: UIII 011700Z 0118/0218 VRB01MPS CAVOK

أرصاد الطقس والتوقعات من أكثر من 4000 مطار (تقارير الطقس للمطار METAR والتنبؤ بالطقس بالمطارTAF).

المحطات المتاحة هي النقط الصفراء والحمراء على الخريطة.

حرك المؤشر فوق النقطة لمعرفة اسم المحطة.

ثم انقر لمعرفة أرصاد وتوقعات الطقس.

لتغيير الخارطة: اضغط على الأزرار الخضراء مع رمز الصليب الأسود للتكبير. على الزر الأخضر مع شرطة للتصغير، أو على الأسهم الخضراء للخرائط المجاورة.


METAR-TAF: